Time,TemperatureF,DewpointF,PressureIn,WindDirection,WindDirectionDegrees,WindSpeedMPH,WindSpeedGustMPH,Humidity,HourlyPrecipIn,Conditions,Clouds,dailyrainin,SolarRadiationWatts/m^2,SoftwareType,DateUTC
2013-05-19 00:04:00,50.5,47.0,30.10,North,-999,0.0,0.0,89,0.00,,,0.00,0,weatherlink.com 1.10,2013-05-19 07:04:00,
2013-05-19 00:19:00,50.3,47.0,30.10,North,-999,0.0,0.0,89,0.00,,,0.00,0,weatherlink.com 1.10,2013-05-19 07:19:00,
2013-05-19 00:34:00,50.1,47.0,30.11,North,-999,0.0,0.0,89,0.00,,,0.00,0,weatherlink.com 1.10,2013-05-19 07:34:00,
2013-05-19 00:49:00,49.8,47.0,30.10,North,360,0.0,0.0,89,0.00,,,0.00,0,weatherlink.com 1.10,2013-05-19 07:49:00,
2013-05-19 01:04:00,49.6,47.0,30.10,North,360,0.0,0.0,90,0.00,,,0.00,0,weatherlink.com 1.10,2013-05-19 08:04:00,
2013-05-19 01:19:00,49.4,47.0,30.10,North,360,0.0,0.0,91,0.00,,,0.00,0,weatherlink.com 1.10,2013-05-19 08:19:00,
2013-05-19 01:34:00,49.1,47.0,30.09,North,360,0.0,0.0,91,0.00,,,0.00,0,weatherlink.com 1.10,2013-05-19 08:34:00,
2013-05-19 01:49:00,48.8,46.0,30.10,North,360,0.0,0.0,91,0.00,,,0.00,0,weatherlink.com 1.10,2013-05-19 08:49:00,
2013-05-19 02:04:00,48.8,47.0,30.09,North,-999,0.0,0.0,92,0.00,,,0.00,0,weatherlink.com 1.10,2013-05-19 09:04:00,
2013-05-19 02:19:00,49.0,47.0,30.10,North,-999,0.0,0.0,92,0.00,,,0.00,0,weatherlink.com 1.10,2013-05-19 09:19:00,
2013-05-19 02:34:00,49.1,47.0,30.09,North,-999,0.0,0.0,92,0.00,,,0.00,0,weatherlink.com 1.10,2013-05-19 09:34:00,
2013-05-19 02:49:00,49.0,47.0,30.10,North,-999,0.0,0.0,93,0.00,,,0.00,0,weatherlink.com 1.10,2013-05-19 09:49:00,
2013-05-19 03:04:00,49.0,47.0,30.10,North,-999,0.0,0.0,93,0.00,,,0.00,0,weatherlink.com 1.10,2013-05-19 10:04:00,
2013-05-19 03:19:00,48.9,47.0,30.10,North,-999,0.0,0.0,93,0.00,,,0.00,0,weatherlink.com 1.10,2013-05-19 10:19:00,
2013-05-19 03:34:00,48.9,47.0,30.10,North,360,0.0,0.0,92,0.00,,,0.00,0,weatherlink.com 1.10,2013-05-19 10:34:00,
2013-05-19 03:49:00,49.1,47.0,30.10,North,360,0.0,0.0,91,0.00,,,0.00,0,weatherlink.com 1.10,2013-05-19 10:49:00,
2013-05-19 04:04:00,49.2,47.0,30.09,North,-999,0.0,0.0,91,0.00,,,0.00,0,weatherlink.com 1.10,2013-05-19 11:04:00,
2013-05-19 04:19:00,49.1,47.0,30.10,North,-999,0.0,0.0,91,0.00,,,0.00,0,weatherlink.com 1.10,2013-05-19 11:19:00,
2013-05-19 04:34:00,49.1,47.0,30.09,North,-999,0.0,0.0,91,0.00,,,0.00,0,weatherlink.com 1.10,2013-05-19 11:34:00,
2013-05-19 04:49:00,49.0,47.0,30.10,North,-999,0.0,0.0,91,0.00,,,0.00,0,weatherlink.com 1.10,2013-05-19 11:49:00,
2013-05-19 05:04:00,48.8,47.0,30.10,North,-999,0.0,0.0,92,0.00,,,0.00,0,weatherlink.com 1.10,2013-05-19 12:04:00,
2013-05-19 05:19:00,48.8,47.0,30.10,North,360,0.0,0.0,92,0.00,,,0.00,0,weatherlink.com 1.10,2013-05-19 12:19:00,
2013-05-19 05:34:00,48.7,47.0,30.10,North,360,0.0,0.0,92,0.00,,,0.00,0,weatherlink.com 1.10,2013-05-19 12:34:00,
2013-05-19 05:49:00,48.7,47.0,30.10,North,-999,0.0,0.0,92,0.00,,,0.00,0,weatherlink.com 1.10,2013-05-19 12:49:00,
2013-05-19 06:04:00,48.6,46.0,30.11,North,360,0.0,0.0,92,0.00,,,0.00,5,weatherlink.com 1.10,2013-05-19 13:04:00,
2013-05-19 06:20:00,48.7,47.0,30.11,North,-999,0.0,0.0,93,0.00,,,0.00,18,weatherlink.com 1.10,2013-05-19 13:20:00,
2013-05-19 06:35:00,48.9,47.0,30.11,North,360,0.0,0.0,93,0.00,,,0.00,26,weatherlink.com 1.10,2013-05-19 13:35:00,
2013-05-19 06:50:00,49.2,47.0,30.11,North,-999,0.0,0.0,93,0.00,,,0.00,35,weatherlink.com 1.10,2013-05-19 13:50:00,
2013-05-19 07:05:00,49.9,48.0,30.11,North,-999,0.0,0.0,93,0.00,,,0.00,40,weatherlink.com 1.10,2013-05-19 14:05:00,
2013-05-19 07:20:00,51.2,49.0,30.11,North,360,0.0,0.0,92,0.00,,,0.00,44,weatherlink.com 1.10,2013-05-19 14:20:00,
2013-05-19 07:35:00,53.0,50.0,30.11,North,360,0.0,0.0,88,0.00,,,0.00,47,weatherlink.com 1.10,2013-05-19 14:35:00,
2013-05-19 07:50:00,54.5,49.0,30.11,North,-999,0.0,0.0,83,0.00,,,0.00,49,weatherlink.com 1.10,2013-05-19 14:50:00,
2013-05-19 08:05:00,55.9,50.0,30.11,North,-999,0.0,0.0,81,0.00,,,0.00,51,weatherlink.com 1.10,2013-05-19 15:05:00,
2013-05-19 08:20:00,56.9,50.0,30.11,North,-999,0.0,0.0,77,0.00,,,0.00,54,weatherlink.com 1.10,2013-05-19 15:20:00,
2013-05-19 08:35:00,57.8,50.0,30.12,North,360,0.0,0.0,74,0.00,,,0.00,60,weatherlink.com 1.10,2013-05-19 15:35:00,
2013-05-19 08:50:00,58.7,50.0,30.11,North,-999,0.0,0.0,73,0.00,,,0.00,63,weatherlink.com 1.10,2013-05-19 15:50:00,
2013-05-19 09:05:00,59.9,50.0,30.11,North,360,0.0,0.0,71,0.00,,,0.00,67,weatherlink.com 1.10,2013-05-19 16:05:00,
2013-05-19 09:20:00,60.3,52.0,30.12,North,360,0.0,0.0,73,0.00,,,0.00,606,weatherlink.com 1.10,2013-05-19 16:20:00,
2013-05-19 09:35:00,61.0,52.0,30.12,North,360,0.0,0.0,73,0.00,,,0.00,659,weatherlink.com 1.10,2013-05-19 16:35:00,
2013-05-19 09:50:00,61.1,52.0,30.12,North,-999,0.0,0.0,73,0.00,,,0.00,708,weatherlink.com 1.10,2013-05-19 16:50:00,
2013-05-19 10:05:00,61.8,52.0,30.11,North,-999,0.0,0.0,71,0.00,,,0.00,756,weatherlink.com 1.10,2013-05-19 17:05:00,
2013-05-19 10:20:00,62.3,52.0,30.12,North,-999,0.0,0.0,68,0.00,,,0.00,793,weatherlink.com 1.10,2013-05-19 17:20:00,
2013-05-19 10:35:00,63.6,52.0,30.11,North,360,0.0,0.0,65,0.00,,,0.00,833,weatherlink.com 1.10,2013-05-19 17:35:00,
2013-05-19 10:51:00,64.2,51.0,30.11,North,360,0.0,0.0,62,0.00,,,0.00,861,weatherlink.com 1.10,2013-05-19 17:51:00,
2013-05-19 11:06:00,64.3,50.0,30.11,North,-999,0.0,0.0,61,0.00,,,0.00,896,weatherlink.com 1.10,2013-05-19 18:06:00,
2013-05-19 11:21:00,64.1,51.0,30.11,North,-999,0.0,0.0,63,0.00,,,0.00,918,weatherlink.com 1.10,2013-05-19 18:21:00,
2013-05-19 11:36:00,65.0,51.0,30.11,North,-999,0.0,0.0,61,0.00,,,0.00,946,weatherlink.com 1.10,2013-05-19 18:36:00,
2013-05-19 11:51:00,65.5,50.0,30.10,North,-999,0.0,0.0,57,0.00,,,0.00,960,weatherlink.com 1.10,2013-05-19 18:51:00,
2013-05-19 12:06:00,65.3,50.0,30.10,North,-999,0.0,0.0,58,0.00,,,0.00,976,weatherlink.com 1.10,2013-05-19 19:06:00,
2013-05-19 12:21:00,64.9,50.0,30.10,North,-999,0.0,0.0,58,0.00,,,0.00,984,weatherlink.com 1.10,2013-05-19 19:21:00,
2013-05-19 12:36:00,64.8,50.0,30.10,North,-999,0.0,0.0,60,0.00,,,0.00,991,weatherlink.com 1.10,2013-05-19 19:36:00,
2013-05-19 12:51:00,64.3,50.0,30.09,North,-999,0.0,0.0,60,0.00,,,0.00,997,weatherlink.com 1.10,2013-05-19 19:51:00,
2013-05-19 13:06:00,64.6,49.0,30.09,North,360,0.0,0.0,58,0.00,,,0.00,995,weatherlink.com 1.10,2013-05-19 20:06:00,
2013-05-19 13:21:00,64.0,50.0,30.08,North,360,0.0,0.0,60,0.00,,,0.00,990,weatherlink.com 1.10,2013-05-19 20:21:00,
2013-05-19 13:36:00,64.9,51.0,30.08,North,360,0.0,0.0,60,0.00,,,0.00,986,weatherlink.com 1.10,2013-05-19 20:36:00,
2013-05-19 13:51:00,65.1,51.0,30.08,North,360,0.0,0.0,60,0.00,,,0.00,972,weatherlink.com 1.10,2013-05-19 20:51:00,
2013-05-19 14:06:00,65.0,51.0,30.08,North,-999,0.0,0.0,61,0.00,,,0.00,956,weatherlink.com 1.10,2013-05-19 21:06:00,
2013-05-19 14:21:00,64.3,51.0,30.08,North,-999,0.0,0.0,62,0.00,,,0.00,946,weatherlink.com 1.10,2013-05-19 21:21:00,
2013-05-19 14:36:00,63.8,50.0,30.07,North,-999,0.0,0.0,62,0.00,,,0.00,738,weatherlink.com 1.10,2013-05-19 21:36:00,
2013-05-19 14:51:00,63.0,50.0,30.07,North,-999,0.0,0.0,63,0.00,,,0.00,60,weatherlink.com 1.10,2013-05-19 21:51:00,
2013-05-19 15:06:00,62.4,49.0,30.06,North,-999,0.0,0.0,63,0.00,,,0.00,51,weatherlink.com 1.10,2013-05-19 22:06:00,
2013-05-19 15:21:00,62.7,49.0,30.06,North,-999,0.0,0.0,62,0.00,,,0.00,56,weatherlink.com 1.10,2013-05-19 22:21:00,
2013-05-19 15:36:00,63.1,50.0,30.05,North,-999,0.0,0.0,62,0.00,,,0.00,243,weatherlink.com 1.10,2013-05-19 22:36:00,
2013-05-19 15:51:00,63.9,50.0,30.05,North,-999,0.0,0.0,62,0.00,,,0.00,76,weatherlink.com 1.10,2013-05-19 22:51:00,
2013-05-19 16:06:00,63.9,50.0,30.05,North,-999,0.0,0.0,61,0.00,,,0.00,42,weatherlink.com 1.10,2013-05-19 23:06:00,
2013-05-19 16:21:00,63.2,51.0,30.04,North,-999,0.0,0.0,64,0.00,,,0.00,44,weatherlink.com 1.10,2013-05-19 23:21:00,
2013-05-19 16:36:00,61.9,51.0,30.04,North,360,0.0,0.0,67,0.00,,,0.00,37,weatherlink.com 1.10,2013-05-19 23:36:00,
2013-05-19 16:51:00,61.5,50.0,30.03,North,360,0.0,0.0,67,0.00,,,0.00,248,weatherlink.com 1.10,2013-05-19 23:51:00,
2013-05-19 17:06:00,61.3,50.0,30.02,North,360,0.0,0.0,67,0.00,,,0.00,308,weatherlink.com 1.10,2013-05-20 00:06:00,
2013-05-19 17:21:00,61.3,51.0,30.02,North,360,0.0,0.0,68,0.00,,,0.00,35,weatherlink.com 1.10,2013-05-20 00:21:00,
2013-05-19 17:36:00,60.9,50.0,30.02,North,-999,0.0,0.0,68,0.00,,,0.00,42,weatherlink.com 1.10,2013-05-20 00:36:00,
2013-05-19 17:51:00,59.8,50.0,30.02,North,-999,0.0,0.0,70,0.00,,,0.00,35,weatherlink.com 1.10,2013-05-20 00:51:00,
2013-05-19 18:06:00,59.2,49.0,30.01,North,360,0.0,0.0,70,0.00,,,0.00,28,weatherlink.com 1.10,2013-05-20 01:06:00,
2013-05-19 18:21:00,59.0,49.0,30.00,North,-999,0.0,0.0,70,0.00,,,0.00,26,weatherlink.com 1.10,2013-05-20 01:21:00,
2013-05-19 18:36:00,58.5,49.0,30.00,North,-999,0.0,0.0,72,0.00,,,0.00,74,weatherlink.com 1.10,2013-05-20 01:36:00,
2013-05-19 18:51:00,58.0,49.0,30.00,North,-999,0.0,0.0,72,0.00,,,0.00,26,weatherlink.com 1.10,2013-05-20 01:51:00,
2013-05-19 19:06:00,57.6,49.0,30.00,North,-999,0.0,0.0,73,0.00,,,0.00,28,weatherlink.com 1.10,2013-05-20 02:06:00,
2013-05-19 19:21:00,56.9,49.0,30.00,North,360,0.0,0.0,75,0.00,,,0.00,35,weatherlink.com 1.10,2013-05-20 02:21:00,
2013-05-19 19:36:00,56.4,49.0,29.99,North,-999,0.0,0.0,76,0.00,,,0.00,14,weatherlink.com 1.10,2013-05-20 02:36:00,
2013-05-19 19:51:00,55.7,49.0,29.99,North,360,0.0,0.0,77,0.00,,,0.00,9,weatherlink.com 1.10,2013-05-20 02:51:00,
2013-05-19 20:06:00,54.6,49.0,29.99,North,360,0.0,0.0,80,0.00,,,0.00,5,weatherlink.com 1.10,2013-05-20 03:06:00,
2013-05-19 20:21:00,53.7,48.0,29.99,North,360,0.0,0.0,82,0.00,,,0.00,0,weatherlink.com 1.10,2013-05-20 03:21:00,
2013-05-19 20:36:00,53.0,48.0,29.99,North,-999,0.0,0.0,83,0.00,,,0.00,0,weatherlink.com 1.10,2013-05-20 03:36:00,
2013-05-19 20:51:00,52.4,48.0,29.99,North,-999,0.0,0.0,84,0.00,,,0.00,0,weatherlink.com 1.10,2013-05-20 03:51:00,
2013-05-19 21:06:00,52.0,48.0,29.99,North,-999,0.0,0.0,85,0.00,,,0.00,0,weatherlink.com 1.10,2013-05-20 04:06:00,
2013-05-19 21:21:00,51.5,48.0,29.99,North,-999,0.0,0.0,87,0.00,,,0.00,0,weatherlink.com 1.10,2013-05-20 04:21:00,
2013-05-19 21:36:00,51.2,48.0,30.00,North,360,0.0,0.0,87,0.00,,,0.00,0,weatherlink.com 1.10,2013-05-20 04:36:00,
2013-05-19 21:51:00,51.0,48.0,30.00,North,360,0.0,0.0,88,0.00,,,0.00,0,weatherlink.com 1.10,2013-05-20 04:51:00,
2013-05-19 22:06:00,50.8,47.0,30.00,North,360,0.0,0.0,88,0.00,,,0.00,0,weatherlink.com 1.10,2013-05-20 05:06:00,
2013-05-19 22:21:00,50.5,47.0,30.00,North,-999,0.0,0.0,89,0.00,,,0.00,0,weatherlink.com 1.10,2013-05-20 05:21:00,
2013-05-19 22:36:00,50.2,47.0,30.00,North,-999,0.0,0.0,89,0.00,,,0.00,0,weatherlink.com 1.10,2013-05-20 05:36:00,
2013-05-19 22:51:00,50.0,47.0,30.00,North,360,0.0,0.0,90,0.00,,,0.00,0,weatherlink.com 1.10,2013-05-20 05:51:00,
2013-05-19 23:07:00,49.9,47.0,30.00,North,360,0.0,0.0,90,0.00,,,0.00,0,weatherlink.com 1.10,2013-05-20 06:07:00,
2013-05-19 23:21:00,49.8,47.0,30.00,North,360,0.0,0.0,90,0.00,,,0.00,0,weatherlink.com 1.10,2013-05-20 06:21:00,
2013-05-19 23:36:00,49.9,47.0,30.00,North,-999,0.0,0.0,90,0.00,,,0.00,0,weatherlink.com 1.10,2013-05-20 06:36:00,
2013-05-19 23:51:00,50.1,47.0,30.00,North,360,0.0,0.0,90,0.00,,,0.00,0,weatherlink.com 1.10,2013-05-20 06:51:00,